sensor_id;sensor_type;location;lat;lon;timestamp;P1;durP1;ratioP1;P2;durP2;ratioP2
14692;SDS011;7435;50.842;4.258;2022-07-05T00:00:47;326.98;;;116.18;;
14692;SDS011;7435;50.842;4.258;2022-07-05T00:06:17;332.90;;;107.03;;
14692;SDS011;7435;50.842;4.258;2022-07-05T00:08:52;335.30;;;110.53;;
14692;SDS011;7435;50.842;4.258;2022-07-05T00:11:59;335.30;;;108.68;;
14692;SDS011;7435;50.842;4.258;2022-07-05T00:14:42;336.05;;;108.90;;
14692;SDS011;7435;50.842;4.258;2022-07-05T00:23:10;326.38;;;120.05;;
14692;SDS011;7435;50.842;4.258;2022-07-05T00:25:49;328.65;;;116.05;;
14692;SDS011;7435;50.842;4.258;2022-07-05T00:28:26;327.63;;;110.07;;
14692;SDS011;7435;50.842;4.258;2022-07-05T00:31:22;323.48;;;108.75;;
14692;SDS011;7435;50.842;4.258;2022-07-05T00:37:28;325.55;;;105.90;;
14692;SDS011;7435;50.842;4.258;2022-07-05T00:40:22;321.08;;;102.35;;
14692;SDS011;7435;50.842;4.258;2022-07-05T00:43:04;331.02;;;108.57;;
14692;SDS011;7435;50.842;4.258;2022-07-05T00:45:33;327.75;;;107.50;;
14692;SDS011;7435;50.842;4.258;2022-07-05T00:48:07;329.08;;;110.60;;
14692;SDS011;7435;50.842;4.258;2022-07-05T00:50:41;322.85;;;109.00;;
14692;SDS011;7435;50.842;4.258;2022-07-05T00:53:19;326.83;;;114.50;;
14692;SDS011;7435;50.842;4.258;2022-07-05T00:58:52;327.52;;;120.88;;
14692;SDS011;7435;50.842;4.258;2022-07-05T01:01:23;327.88;;;122.00;;
14692;SDS011;7435;50.842;4.258;2022-07-05T01:03:54;328.02;;;125.38;;
14692;SDS011;7435;50.842;4.258;2022-07-05T01:06:28;328.08;;;124.63;;
14692;SDS011;7435;50.842;4.258;2022-07-05T01:14:29;328.58;;;107.82;;
14692;SDS011;7435;50.842;4.258;2022-07-05T01:17:11;328.75;;;108.13;;
14692;SDS011;7435;50.842;4.258;2022-07-05T01:19:55;329.63;;;106.55;;
14692;SDS011;7435;50.842;4.258;2022-07-05T01:25:55;328.45;;;105.40;;
14692;SDS011;7435;50.842;4.258;2022-07-05T01:28:45;327.65;;;102.22;;
14692;SDS011;7435;50.842;4.258;2022-07-05T01:31:29;329.88;;;102.82;;
14692;SDS011;7435;50.842;4.258;2022-07-05T01:34:11;329.05;;;106.22;;
14692;SDS011;7435;50.842;4.258;2022-07-05T01:36:54;324.35;;;104.10;;
14692;SDS011;7435;50.842;4.258;2022-07-05T01:39:47;329.95;;;130.77;;
14692;SDS011;7435;50.842;4.258;2022-07-05T01:42:59;324.05;;;115.25;;
14692;SDS011;7435;50.842;4.258;2022-07-05T01:45:37;324.33;;;107.93;;
14692;SDS011;7435;50.842;4.258;2022-07-05T01:48:21;324.30;;;104.90;;
14692;SDS011;7435;50.842;4.258;2022-07-05T01:50:59;320.73;;;101.15;;
14692;SDS011;7435;50.842;4.258;2022-07-05T01:53:42;322.35;;;104.68;;
14692;SDS011;7435;50.842;4.258;2022-07-05T01:56:24;324.23;;;106.50;;
14692;SDS011;7435;50.842;4.258;2022-07-05T02:01:57;324.92;;;106.35;;
14692;SDS011;7435;50.842;4.258;2022-07-05T02:04:45;326.90;;;107.20;;
14692;SDS011;7435;50.842;4.258;2022-07-05T02:07:53;321.73;;;99.70;;
14692;SDS011;7435;50.842;4.258;2022-07-05T02:10:37;320.60;;;111.00;;
14692;SDS011;7435;50.842;4.258;2022-07-05T02:16:33;318.67;;;104.60;;
14692;SDS011;7435;50.842;4.258;2022-07-05T02:54:44;319.17;;;94.18;;
14692;SDS011;7435;50.842;4.258;2022-07-05T02:57:32;318.67;;;91.95;;
14692;SDS011;7435;50.842;4.258;2022-07-05T03:03:20;319.85;;;91.50;;
14692;SDS011;7435;50.842;4.258;2022-07-05T03:06:27;315.10;;;90.40;;
14692;SDS011;7435;50.842;4.258;2022-07-05T03:09:08;319.20;;;92.45;;
14692;SDS011;7435;50.842;4.258;2022-07-05T03:21:38;317.35;;;106.15;;
14692;SDS011;7435;50.842;4.258;2022-07-05T03:30:31;314.23;;;93.00;;
14692;SDS011;7435;50.842;4.258;2022-07-05T03:33:19;317.00;;;94.50;;
14692;SDS011;7435;50.842;4.258;2022-07-05T03:39:22;321.80;;;110.77;;
14692;SDS011;7435;50.842;4.258;2022-07-05T03:42:17;308.73;;;100.45;;
14692;SDS011;7435;50.842;4.258;2022-07-05T03:45:27;308.45;;;92.13;;
14692;SDS011;7435;50.842;4.258;2022-07-05T03:48:24;314.23;;;98.38;;
14692;SDS011;7435;50.842;4.258;2022-07-05T03:51:27;324.95;;;147.95;;
14692;SDS011;7435;50.842;4.258;2022-07-05T04:57:54;671.72;;;622.13;;
14692;SDS011;7435;50.842;4.258;2022-07-05T05:00:55;760.67;;;705.35;;
14692;SDS011;7435;50.842;4.258;2022-07-05T05:03:46;779.28;;;725.33;;
14692;SDS011;7435;50.842;4.258;2022-07-05T05:12:52;766.53;;;713.13;;
14692;SDS011;7435;50.842;4.258;2022-07-05T05:21:35;432.30;;;389.75;;
14692;SDS011;7435;50.842;4.258;2022-07-05T05:24:43;333.63;;;278.85;;
14692;SDS011;7435;50.842;4.258;2022-07-05T05:30:26;293.23;;;223.23;;
14692;SDS011;7435;50.842;4.258;2022-07-05T05:57:45;678.67;;;628.25;;
14692;SDS011;7435;50.842;4.258;2022-07-05T06:03:44;717.95;;;665.60;;
14692;SDS011;7435;50.842;4.258;2022-07-05T06:06:38;727.63;;;674.70;;
14692;SDS011;7435;50.842;4.258;2022-07-05T06:09:29;719.83;;;666.92;;
14692;SDS011;7435;50.842;4.258;2022-07-05T06:15:54;750.83;;;695.03;;
14692;SDS011;7435;50.842;4.258;2022-07-05T06:18:45;743.10;;;688.00;;
14692;SDS011;7435;50.842;4.258;2022-07-05T06:24:11;758.35;;;702.85;;
14692;SDS011;7435;50.842;4.258;2022-07-05T06:26:48;775.20;;;719.95;;
14692;SDS011;7435;50.842;4.258;2022-07-05T06:58:17;863.22;;;801.90;;
14692;SDS011;7435;50.842;4.258;2022-07-05T07:01:12;860.45;;;797.88;;
14692;SDS011;7435;50.842;4.258;2022-07-05T07:03:55;883.08;;;819.15;;
14692;SDS011;7435;50.842;4.258;2022-07-05T07:06:38;874.58;;;811.20;;
14692;SDS011;7435;50.842;4.258;2022-07-05T07:09:26;867.80;;;805.17;;
14692;SDS011;7435;50.842;4.258;2022-07-05T07:12:17;866.08;;;799.83;;
14692;SDS011;7435;50.842;4.258;2022-07-05T07:15:00;886.23;;;822.53;;
14692;SDS011;7435;50.842;4.258;2022-07-05T07:17:29;893.13;;;826.67;;
14692;SDS011;7435;50.842;4.258;2022-07-05T07:19:56;895.47;;;830.67;;
14692;SDS011;7435;50.842;4.258;2022-07-05T07:22:24;895.05;;;830.30;;
14692;SDS011;7435;50.842;4.258;2022-07-05T07:24:53;907.78;;;842.13;;
14692;SDS011;7435;50.842;4.258;2022-07-05T07:27:20;900.47;;;832.80;;
14692;SDS011;7435;50.842;4.258;2022-07-05T07:29:48;912.33;;;847.10;;
14692;SDS011;7435;50.842;4.258;2022-07-05T07:32:16;924.28;;;857.42;;
14692;SDS011;7435;50.842;4.258;2022-07-05T07:34:47;903.47;;;835.47;;
14692;SDS011;7435;50.842;4.258;2022-07-05T07:37:14;912.47;;;844.60;;
14692;SDS011;7435;50.842;4.258;2022-07-05T07:39:44;934.63;;;863.67;;
14692;SDS011;7435;50.842;4.258;2022-07-05T07:42:11;928.13;;;856.57;;
14692;SDS011;7435;50.842;4.258;2022-07-05T07:44:38;931.63;;;863.35;;
14692;SDS011;7435;50.842;4.258;2022-07-05T07:47:05;932.08;;;860.85;;
14692;SDS011;7435;50.842;4.258;2022-07-05T07:49:36;949.00;;;877.00;;
14692;SDS011;7435;50.842;4.258;2022-07-05T07:52:07;1121.80;;;999.90;;
14692;SDS011;7435;50.842;4.258;2022-07-05T07:54:37;1046.75;;;964.25;;
14692;SDS011;7435;50.842;4.258;2022-07-05T07:57:05;992.33;;;919.65;;
14692;SDS011;7435;50.842;4.258;2022-07-05T07:59:32;996.83;;;924.22;;
14692;SDS011;7435;50.842;4.258;2022-07-05T08:01:59;1008.78;;;934.40;;
14692;SDS011;7435;50.842;4.258;2022-07-05T08:04:26;1009.53;;;936.80;;
14692;SDS011;7435;50.842;4.258;2022-07-05T08:06:55;1011.88;;;936.92;;
14692;SDS011;7435;50.842;4.258;2022-07-05T08:09:22;1011.22;;;934.97;;
14692;SDS011;7435;50.842;4.258;2022-07-05T08:11:49;1015.80;;;942.57;;
14692;SDS011;7435;50.842;4.258;2022-07-05T08:14:17;1008.45;;;931.50;;
14692;SDS011;7435;50.842;4.258;2022-07-05T08:16:46;1015.65;;;941.42;;
14692;SDS011;7435;50.842;4.258;2022-07-05T08:19:15;1019.95;;;945.60;;
14692;SDS011;7435;50.842;4.258;2022-07-05T08:22:02;1019.42;;;944.72;;
14692;SDS011;7435;50.842;4.258;2022-07-05T08:24:30;1026.80;;;951.85;;
14692;SDS011;7435;50.842;4.258;2022-07-05T08:26:57;1033.30;;;956.97;;
14692;SDS011;7435;50.842;4.258;2022-07-05T08:29:31;1028.70;;;951.60;;
14692;SDS011;7435;50.842;4.258;2022-07-05T08:31:58;1051.40;;;975.78;;
14692;SDS011;7435;50.842;4.258;2022-07-05T08:34:26;1073.77;;;991.50;;
14692;SDS011;7435;50.842;4.258;2022-07-05T08:36:53;1102.15;;;999.90;;
14692;SDS011;7435;50.842;4.258;2022-07-05T08:39:22;1095.18;;;999.90;;
14692;SDS011;7435;50.842;4.258;2022-07-05T08:41:50;1079.60;;;998.20;;
14692;SDS011;7435;50.842;4.258;2022-07-05T08:44:21;1087.28;;;999.90;;
14692;SDS011;7435;50.842;4.258;2022-07-05T08:46:48;1032.70;;;957.60;;
14692;SDS011;7435;50.842;4.258;2022-07-05T08:49:20;1001.72;;;935.05;;
14692;SDS011;7435;50.842;4.258;2022-07-05T08:51:48;980.67;;;914.35;;
14692;SDS011;7435;50.842;4.258;2022-07-05T08:54:16;951.83;;;888.45;;
14692;SDS011;7435;50.842;4.258;2022-07-05T08:56:45;944.95;;;880.10;;
14692;SDS011;7435;50.842;4.258;2022-07-05T08:59:12;920.35;;;856.78;;
14692;SDS011;7435;50.842;4.258;2022-07-05T09:01:40;960.28;;;894.63;;
14692;SDS011;7435;50.842;4.258;2022-07-05T09:04:07;970.40;;;905.20;;
14692;SDS011;7435;50.842;4.258;2022-07-05T09:06:35;917.92;;;854.60;;
14692;SDS011;7435;50.842;4.258;2022-07-05T09:09:03;926.53;;;863.37;;
14692;SDS011;7435;50.842;4.258;2022-07-05T09:11:31;960.35;;;895.55;;
14692;SDS011;7435;50.842;4.258;2022-07-05T09:14:03;1073.33;;;999.90;;
14692;SDS011;7435;50.842;4.258;2022-07-05T09:16:31;892.90;;;832.40;;
14692;SDS011;7435;50.842;4.258;2022-07-05T09:19:04;831.60;;;771.53;;
14692;SDS011;7435;50.842;4.258;2022-07-05T09:21:32;1053.72;;;986.17;;
14692;SDS011;7435;50.842;4.258;2022-07-05T09:24:00;1089.83;;;999.90;;
14692;SDS011;7435;50.842;4.258;2022-07-05T09:26:31;921.70;;;861.23;;
14692;SDS011;7435;50.842;4.258;2022-07-05T09:28:58;891.17;;;831.60;;
14692;SDS011;7435;50.842;4.258;2022-07-05T09:31:28;1097.22;;;999.90;;
14692;SDS011;7435;50.842;4.258;2022-07-05T09:34:05;960.97;;;898.40;;
14692;SDS011;7435;50.842;4.258;2022-07-05T09:39:14;919.60;;;858.77;;
14692;SDS011;7435;50.842;4.258;2022-07-05T09:41:42;927.77;;;867.03;;
14692;SDS011;7435;50.842;4.258;2022-07-05T09:44:09;926.27;;;865.50;;
14692;SDS011;7435;50.842;4.258;2022-07-05T09:46:38;913.93;;;853.90;;
14692;SDS011;7435;50.842;4.258;2022-07-05T09:49:05;932.77;;;871.47;;
14692;SDS011;7435;50.842;4.258;2022-07-05T09:51:46;938.07;;;876.73;;
14692;SDS011;7435;50.842;4.258;2022-07-05T09:54:14;930.87;;;869.80;;
14692;SDS011;7435;50.842;4.258;2022-07-05T09:56:44;924.63;;;864.00;;
14692;SDS011;7435;50.842;4.258;2022-07-05T09:59:12;938.90;;;877.07;;
14692;SDS011;7435;50.842;4.258;2022-07-05T10:01:41;956.03;;;893.93;;
14692;SDS011;7435;50.842;4.258;2022-07-05T10:04:08;1000.27;;;934.83;;
14692;SDS011;7435;50.842;4.258;2022-07-05T10:06:36;1009.67;;;944.47;;
14692;SDS011;7435;50.842;4.258;2022-07-05T10:09:03;1008.27;;;942.90;;
14692;SDS011;7435;50.842;4.258;2022-07-05T10:11:31;1013.83;;;947.97;;
14692;SDS011;7435;50.842;4.258;2022-07-05T10:13:58;982.10;;;918.23;;
14692;SDS011;7435;50.842;4.258;2022-07-05T10:16:25;964.10;;;901.43;;
14692;SDS011;7435;50.842;4.258;2022-07-05T10:18:54;948.47;;;887.03;;
14692;SDS011;7435;50.842;4.258;2022-07-05T10:21:21;928.53;;;867.67;;
14692;SDS011;7435;50.842;4.258;2022-07-05T10:23:51;909.53;;;849.17;;
14692;SDS011;7435;50.842;4.258;2022-07-05T10:26:19;1069.13;;;999.90;;
14692;SDS011;7435;50.842;4.258;2022-07-05T10:28:47;900.90;;;841.60;;
14692;SDS011;7435;50.842;4.258;2022-07-05T10:31:15;856.07;;;798.50;;
14692;SDS011;7435;50.842;4.258;2022-07-05T10:33:43;879.43;;;820.70;;
14692;SDS011;7435;50.842;4.258;2022-07-05T10:36:12;944.27;;;882.17;;
14692;SDS011;7435;50.842;4.258;2022-07-05T10:38:40;1181.18;;;999.90;;
14692;SDS011;7435;50.842;4.258;2022-07-05T10:41:09;1063.77;;;994.43;;
14692;SDS011;7435;50.842;4.258;2022-07-05T10:43:37;1080.80;;;999.90;;
14692;SDS011;7435;50.842;4.258;2022-07-05T10:46:05;1075.30;;;999.90;;
14692;SDS011;7435;50.842;4.258;2022-07-05T10:48:33;1091.43;;;999.90;;
14692;SDS011;7435;50.842;4.258;2022-07-05T10:51:01;1086.40;;;999.90;;
14692;SDS011;7435;50.842;4.258;2022-07-05T10:56:21;1110.60;;;999.90;;
14692;SDS011;7435;50.842;4.258;2022-07-05T10:58:48;1116.83;;;999.90;;
14692;SDS011;7435;50.842;4.258;2022-07-05T11:01:33;1111.68;;;999.90;;
14692;SDS011;7435;50.842;4.258;2022-07-05T11:04:10;1116.72;;;999.90;;
14692;SDS011;7435;50.842;4.258;2022-07-05T11:06:42;1111.82;;;999.90;;
14692;SDS011;7435;50.842;4.258;2022-07-05T11:09:16;1094.45;;;999.90;;
14692;SDS011;7435;50.842;4.258;2022-07-05T11:11:44;1080.03;;;999.90;;
14692;SDS011;7435;50.842;4.258;2022-07-05T11:17:13;1050.77;;;983.27;;
14692;SDS011;7435;50.842;4.258;2022-07-05T11:20:00;1025.40;;;959.57;;
14692;SDS011;7435;50.842;4.258;2022-07-05T11:22:28;1030.53;;;963.93;;
14692;SDS011;7435;50.842;4.258;2022-07-05T11:24:59;1020.77;;;954.93;;
14692;SDS011;7435;50.842;4.258;2022-07-05T11:27:26;1016.20;;;951.00;;
14692;SDS011;7435;50.842;4.258;2022-07-05T11:29:54;999.33;;;934.80;;
14692;SDS011;7435;50.842;4.258;2022-07-05T11:32:22;995.57;;;931.33;;
14692;SDS011;7435;50.842;4.258;2022-07-05T11:34:50;974.77;;;911.50;;
14692;SDS011;7435;50.842;4.258;2022-07-05T11:37:18;977.23;;;914.00;;
14692;SDS011;7435;50.842;4.258;2022-07-05T11:40:25;949.00;;;887.57;;
14692;SDS011;7435;50.842;4.258;2022-07-05T11:42:37;931.37;;;870.70;;
14692;SDS011;7435;50.842;4.258;2022-07-05T11:45:05;913.80;;;853.93;;
14692;SDS011;7435;50.842;4.258;2022-07-05T11:47:32;934.00;;;872.97;;
14692;SDS011;7435;50.842;4.258;2022-07-05T11:50:00;922.83;;;862.13;;
14692;SDS011;7435;50.842;4.258;2022-07-05T11:52:27;922.17;;;861.70;;
14692;SDS011;7435;50.842;4.258;2022-07-05T11:54:55;924.90;;;864.47;;
14692;SDS011;7435;50.842;4.258;2022-07-05T11:57:22;955.67;;;893.80;;
14692;SDS011;7435;50.842;4.258;2022-07-05T11:59:51;958.67;;;896.40;;
14692;SDS011;7435;50.842;4.258;2022-07-05T12:02:19;992.43;;;928.37;;
14692;SDS011;7435;50.842;4.258;2022-07-05T12:04:46;1043.13;;;975.63;;
14692;SDS011;7435;50.842;4.258;2022-07-05T12:07:23;1069.30;;;998.40;;
14692;SDS011;7435;50.842;4.258;2022-07-05T12:09:51;1081.10;;;999.90;;
14692;SDS011;7435;50.842;4.258;2022-07-05T12:12:36;1057.90;;;989.63;;
14692;SDS011;7435;50.842;4.258;2022-07-05T12:15:11;1052.17;;;984.37;;
14692;SDS011;7435;50.842;4.258;2022-07-05T12:17:39;1033.90;;;967.43;;
14692;SDS011;7435;50.842;4.258;2022-07-05T12:20:07;1018.70;;;953.37;;
14692;SDS011;7435;50.842;4.258;2022-07-05T12:22:38;995.70;;;931.23;;
14692;SDS011;7435;50.842;4.258;2022-07-05T12:25:06;1003.50;;;939.23;;
14692;SDS011;7435;50.842;4.258;2022-07-05T12:27:35;987.57;;;923.77;;
14692;SDS011;7435;50.842;4.258;2022-07-05T12:30:04;973.63;;;910.60;;
14692;SDS011;7435;50.842;4.258;2022-07-05T12:32:32;956.53;;;894.57;;
14692;SDS011;7435;50.842;4.258;2022-07-05T12:35:01;962.43;;;900.37;;
14692;SDS011;7435;50.842;4.258;2022-07-05T12:37:28;986.93;;;923.67;;
14692;SDS011;7435;50.842;4.258;2022-07-05T12:40:02;967.10;;;905.00;;
14692;SDS011;7435;50.842;4.258;2022-07-05T12:42:29;954.67;;;892.90;;
14692;SDS011;7435;50.842;4.258;2022-07-05T12:45:10;941.53;;;880.30;;
14692;SDS011;7435;50.842;4.258;2022-07-05T12:47:48;937.70;;;876.40;;
14692;SDS011;7435;50.842;4.258;2022-07-05T12:50:18;933.93;;;873.33;;
14692;SDS011;7435;50.842;4.258;2022-07-05T12:52:56;966.90;;;904.53;;
14692;SDS011;7435;50.842;4.258;2022-07-05T12:55:24;973.60;;;910.63;;
14692;SDS011;7435;50.842;4.258;2022-07-05T12:58:08;971.30;;;908.77;;
14692;SDS011;7435;50.842;4.258;2022-07-05T13:00:35;940.60;;;879.73;;
14692;SDS011;7435;50.842;4.258;2022-07-05T13:03:04;950.13;;;888.80;;
14692;SDS011;7435;50.842;4.258;2022-07-05T13:05:32;981.13;;;918.00;;
14692;SDS011;7435;50.842;4.258;2022-07-05T13:08:01;971.00;;;908.43;;
14692;SDS011;7435;50.842;4.258;2022-07-05T13:10:28;996.77;;;932.53;;
14692;SDS011;7435;50.842;4.258;2022-07-05T13:12:56;1012.37;;;947.30;;
14692;SDS011;7435;50.842;4.258;2022-07-05T13:15:24;982.23;;;919.43;;
14692;SDS011;7435;50.842;4.258;2022-07-05T13:17:51;974.87;;;911.63;;
14692;SDS011;7435;50.842;4.258;2022-07-05T13:20:19;962.53;;;900.67;;
14692;SDS011;7435;50.842;4.258;2022-07-05T13:22:48;960.27;;;898.13;;
14692;SDS011;7435;50.842;4.258;2022-07-05T13:25:15;943.77;;;882.13;;
14692;SDS011;7435;50.842;4.258;2022-07-05T13:27:43;926.70;;;866.63;;
14692;SDS011;7435;50.842;4.258;2022-07-05T13:30:10;929.70;;;868.97;;
14692;SDS011;7435;50.842;4.258;2022-07-05T13:32:38;935.97;;;874.90;;
14692;SDS011;7435;50.842;4.258;2022-07-05T13:35:06;925.70;;;864.97;;
14692;SDS011;7435;50.842;4.258;2022-07-05T13:37:35;937.13;;;876.47;;
14692;SDS011;7435;50.842;4.258;2022-07-05T13:40:02;908.40;;;849.07;;
14692;SDS011;7435;50.842;4.258;2022-07-05T13:42:29;927.13;;;867.07;;
14692;SDS011;7435;50.842;4.258;2022-07-05T13:44:57;941.20;;;880.60;;
14692;SDS011;7435;50.842;4.258;2022-07-05T13:47:24;921.27;;;861.37;;
14692;SDS011;7435;50.842;4.258;2022-07-05T13:49:51;947.00;;;885.63;;
14692;SDS011;7435;50.842;4.258;2022-07-05T13:52:39;948.80;;;887.10;;
14692;SDS011;7435;50.842;4.258;2022-07-05T13:55:07;1109.18;;;999.90;;
14692;SDS011;7435;50.842;4.258;2022-07-05T13:57:34;926.57;;;866.30;;
14692;SDS011;7435;50.842;4.258;2022-07-05T14:00:02;884.93;;;826.77;;
14692;SDS011;7435;50.842;4.258;2022-07-05T14:02:29;858.00;;;801.20;;
14692;SDS011;7435;50.842;4.258;2022-07-05T14:04:56;856.77;;;799.37;;
14692;SDS011;7435;50.842;4.258;2022-07-05T14:07:23;870.70;;;812.73;;
14692;SDS011;7435;50.842;4.258;2022-07-05T14:09:52;846.13;;;789.10;;
14692;SDS011;7435;50.842;4.258;2022-07-05T14:12:19;831.87;;;775.37;;
14692;SDS011;7435;50.842;4.258;2022-07-05T14:14:46;830.07;;;772.77;;
14692;SDS011;7435;50.842;4.258;2022-07-05T14:17:13;1057.20;;;990.97;;
14692;SDS011;7435;50.842;4.258;2022-07-05T14:19:41;864.00;;;806.17;;
14692;SDS011;7435;50.842;4.258;2022-07-05T14:22:08;861.23;;;803.33;;
14692;SDS011;7435;50.842;4.258;2022-07-05T14:24:35;1059.45;;;993.20;;
14692;SDS011;7435;50.842;4.258;2022-07-05T14:27:04;907.40;;;847.97;;
14692;SDS011;7435;50.842;4.258;2022-07-05T14:29:32;855.33;;;797.93;;
14692;SDS011;7435;50.842;4.258;2022-07-05T14:31:59;1030.07;;;965.40;;
14692;SDS011;7435;50.842;4.258;2022-07-05T14:34:26;876.57;;;818.13;;
14692;SDS011;7435;50.842;4.258;2022-07-05T14:36:53;844.07;;;787.23;;
14692;SDS011;7435;50.842;4.258;2022-07-05T14:39:21;1045.53;;;980.15;;
14692;SDS011;7435;50.842;4.258;2022-07-05T14:41:48;868.43;;;810.80;;
14692;SDS011;7435;50.842;4.258;2022-07-05T14:44:17;1043.28;;;977.83;;
14692;SDS011;7435;50.842;4.258;2022-07-05T14:46:44;868.53;;;811.37;;
14692;SDS011;7435;50.842;4.258;2022-07-05T14:49:11;858.67;;;800.87;;
14692;SDS011;7435;50.842;4.258;2022-07-05T14:51:38;1038.43;;;973.72;;
14692;SDS011;7435;50.842;4.258;2022-07-05T14:54:05;890.13;;;831.17;;
14692;SDS011;7435;50.842;4.258;2022-07-05T14:56:33;1027.35;;;962.72;;
14692;SDS011;7435;50.842;4.258;2022-07-05T14:59:00;866.17;;;808.73;;
14692;SDS011;7435;50.842;4.258;2022-07-05T15:01:28;1023.90;;;959.42;;
14692;SDS011;7435;50.842;4.258;2022-07-05T15:03:55;881.97;;;823.60;;
14692;SDS011;7435;50.842;4.258;2022-07-05T15:06:23;1023.92;;;959.80;;
14692;SDS011;7435;50.842;4.258;2022-07-05T15:11:54;1027.70;;;962.97;;
14692;SDS011;7435;50.842;4.258;2022-07-05T15:22:49;988.33;;;925.43;;
14692;SDS011;7435;50.842;4.258;2022-07-05T15:42:14;977.03;;;915.37;;
14692;SDS011;7435;50.842;4.258;2022-07-05T15:44:44;980.13;;;918.05;;
14692;SDS011;7435;50.842;4.258;2022-07-05T15:47:12;1004.38;;;940.20;;
14692;SDS011;7435;50.842;4.258;2022-07-05T15:49:40;1002.15;;;938.95;;
14692;SDS011;7435;50.842;4.258;2022-07-05T16:10:30;973.15;;;911.55;;
14692;SDS011;7435;50.842;4.258;2022-07-05T16:12:59;1003.50;;;940.70;;
14692;SDS011;7435;50.842;4.258;2022-07-05T16:46:13;963.07;;;901.57;;
14692;SDS011;7435;50.842;4.258;2022-07-05T16:49:16;954.30;;;893.33;;
14692;SDS011;7435;50.842;4.258;2022-07-05T16:52:16;960.00;;;898.90;;
14692;SDS011;7435;50.842;4.258;2022-07-05T17:39:35;915.88;;;856.38;;
14692;SDS011;7435;50.842;4.258;2022-07-05T17:42:26;915.22;;;855.70;;
14692;SDS011;7435;50.842;4.258;2022-07-05T17:45:19;902.85;;;843.65;;
14692;SDS011;7435;50.842;4.258;2022-07-05T17:54:20;901.25;;;842.20;;
